Flight Track Log - Related Links

Times and Time Zones

All times are in EDT time to prevent confusion due to time zone crossing. See the SWA1046 flight status page for this flight to view local times or setup timezone preferences in your user account.

Time Position Orientation Groundspeed Altitude Reporting Facility
EDT Latitude Longitude Course Direction KTS MPH feet Rate Location/Type
Sun 11:22:29 AM 28.4000 -81.3000 221° Southwest 154 177 800  Level Orlando TRACON
Sun 11:23:30 AM 28.3667 -81.3333 221° Southwest 243 280 3,100 2,876 Climbing Orlando TRACON
Sun 11:24:30 AM 28.3167 -81.4000 230° Southwest 261 300 6,600 3,429 Climbing Orlando TRACON
Sun 11:25:36 AM 28.3167 -81.5000 270° West 289 333 10,300 2,865 Climbing Orlando TRACON
Sun 11:27:28 AM 28.3572 -81.6847 284° West 355 409 15,100 2,616 Climbing Jacksonville Center
Sun 11:28:28 AM 28.3978 -81.7975 292° West 367 422 17,800 2,700 Climbing Jacksonville Center
Sun 11:29:28 AM 28.4425 -81.9128 294° West 384 442 20,500 2,500 Climbing Jacksonville Center
Sun 11:30:28 AM 28.4808 -82.0331 290° West 396 456 22,800 2,300 Climbing Jacksonville Center
Sun 11:31:28 AM 28.5422 -82.1433 302° West 396 456 25,100 1,600 Climbing Jacksonville Center
Sun 11:32:28 AM 28.6364 -82.2231 323° Northwest 408 470 26,000 1,450 Climbing Jacksonville Center
Sun 11:33:28 AM 28.7331 -82.3078 322° Northwest 413 475 28,000 1,900 Climbing Jacksonville Center
Sun 11:34:28 AM 28.8314 -82.3831 326° Northwest 425 489 29,800 2,000 Climbing Jacksonville Center
Sun 11:35:28 AM 28.9297 -82.4583 326° Northwest 430 495 32,000 1,750 Climbing Jacksonville Center
Sun 11:36:28 AM 29.0300 -82.5339 327° Northwest 430 495 33,300 1,450 Climbing Jacksonville Center
Sun 11:37:28 AM 29.1283 -82.6119 325° Northwest 430 495 34,900 1,800 Climbing Jacksonville Center
Sun 11:38:28 AM 29.2289 -82.6878 327° Northwest 430 495 36,900 1,550 Climbing Jacksonville Center
Sun 11:39:28 AM 29.3208 -82.7592 326° Northwest 419 482 38,000 550 Climbing Jacksonville Center
Sun 11:40:28 AM 29.4083 -82.8283 325° Northwest 404 465 38,000  Level Jacksonville Center
Sun 11:41:28 AM 29.5025 -82.8997 327° Northwest 393 452 38,000  Level Jacksonville Center
Sun 11:42:28 AM 29.5900 -82.9714 325° Northwest 398 458 38,000  Level Jacksonville Center
Sun 11:43:28 AM 29.6778 -83.0361 327° Northwest 392 451 38,000  Level Jacksonville Center
Sun 11:44:28 AM 29.7653 -83.1056 325° Northwest 387 445 38,000  Level Jacksonville Center
Sun 11:45:28 AM 29.8569 -83.1753 327° Northwest 388 447 38,000  Level Jacksonville Center
Sun 11:46:28 AM 29.9425 -83.2425 326° Northwest 378 435 38,000  Level Jacksonville Center
Sun 11:47:28 AM 30.0258 -83.3075 326° Northwest 378 435 38,000  Level Jacksonville Center
Sun 11:48:28 AM 30.1131 -83.3775 325° Northwest 378 435 38,000  Level Jacksonville Center
Sun 11:49:28 AM 30.2006 -83.4431 327° Northwest 378 435 38,000  Level Jacksonville Center
Sun 11:50:28 AM 30.2900 -83.5156 325° Northwest 378 435 38,000  Level Jacksonville Center
Sun 11:51:28 AM 30.3775 -83.5836 326° Northwest 378 435 38,000  Level Jacksonville Center
Sun 11:52:28 AM 30.4667 -83.6517 327° Northwest 378 435 38,000  Level Jacksonville Center
Sun 11:53:28 AM 30.5542 -83.7225 325° Northwest 378 435 38,000  Level Jacksonville Center
Sun 11:54:28 AM 30.6372 -83.7908 325° Northwest 378 435 38,000  Level Jacksonville Center
Sun 11:55:28 AM 30.7242 -83.8642 324° Northwest 378 435 38,000  Level Jacksonville Center
Sun 11:56:28 AM 30.8156 -83.9375 325° Northwest 383 441 38,000  Level Jacksonville Center
Sun 11:57:28 AM 30.9006 -84.0039 326° Northwest 378 435 38,000  Level Jacksonville Center
Sun 11:58:28 AM 30.9875 -84.0753 325° Northwest 378 435 38,000  Level Jacksonville Center
Sun 11:59:28 AM 31.0767 -84.1467 326° Northwest 378 435 38,000  Level Jacksonville Center
Sun 12:00:28 PM 31.1636 -84.2158 326° Northwest 378 435 38,000  Level Jacksonville Center
Sun 12:02:07 PM 31.3081 -84.3353 325° Northwest 395 455 38,000  Level Atlanta Center
Sun 12:03:07 PM 31.3914 -84.4039 325° Northwest 390 449 38,000  Level Atlanta Center
Sun 12:04:06 PM 31.4786 -84.4747 325° Northwest 383 441 38,000  Level Atlanta Center
Sun 12:05:07 PM 31.5639 -84.5433 326° Northwest 377 434 38,000  Level Atlanta Center
Sun 12:06:07 PM 31.6514 -84.6147 325° Northwest 377 434 38,000  Level Atlanta Center
Sun 12:07:07 PM 31.7386 -84.6861 325° Northwest 377 434 38,000  Level Atlanta Center
Sun 12:08:07 PM 31.8239 -84.7550 326° Northwest 377 434 38,000  Level Atlanta Center
Sun 12:09:07 PM 31.9111 -84.8292 324° Northwest 377 434 38,000  Level Atlanta Center
Sun 12:10:07 PM 31.9961 -84.9008 324° Northwest 383 441 38,000  Level Atlanta Center
Sun 12:11:07 PM 32.0833 -84.9703 326° Northwest 377 434 38,000  Level Atlanta Center
Sun 12:12:07 PM 32.1706 -85.0400 326° Northwest 377 434 38,000  Level Atlanta Center
Sun 12:13:07 PM 32.2594 -85.1147 325° Northwest 377 434 38,000  Level Atlanta Center
Sun 12:14:07 PM 32.3508 -85.1847 327° Northwest 370 426 38,000  Level Atlanta Center
Sun 12:15:07 PM 32.4314 -85.2544 324° Northwest 376 433 38,000  Level Atlanta Center
Sun 12:16:06 PM 32.5183 -85.3272 325° Northwest 376 433 38,000  Level Atlanta Center
Sun 12:17:07 PM 32.6011 -85.3975 324° Northwest 376 433 38,000  Level Atlanta Center
Sun 12:18:07 PM 32.6881 -85.4703 325° Northwest 376 433 38,000  Level Atlanta Center
Sun 12:19:07 PM 32.7747 -85.5433 325° Northwest 376 433 38,000  Level Atlanta Center
Sun 12:20:07 PM 32.8594 -85.6142 325° Northwest 376 433 38,000  Level Atlanta Center
Sun 12:21:07 PM 32.9461 -85.6875 325° Northwest 381 438 38,000  Level Atlanta Center
Sun 12:22:07 PM 33.0308 -85.7608 324° Northwest 375 432 38,000  Level Atlanta Center
Sun 12:23:07 PM 33.1175 -85.8319 326° Northwest 381 438 38,000  Level Atlanta Center
Sun 12:24:07 PM 33.1997 -85.9058 323° Northwest 375 432 38,000  Level Atlanta Center
Sun 12:25:07 PM 33.2842 -85.9794 324° Northwest 375 432 38,000  Level Atlanta Center
Sun 12:26:07 PM 33.3708 -86.0511 325° Northwest 381 438 38,000  Level Atlanta Center
Sun 12:27:07 PM 33.4572 -86.1253 324° Northwest 376 433 38,000  Level Atlanta Center
Sun 12:28:07 PM 33.5436 -86.1997 324° Northwest 381 438 38,000  Level Atlanta Center
Sun 12:29:07 PM 33.6319 -86.2767 324° Northwest 381 438 38,000  Level Atlanta Center
Sun 12:30:07 PM 33.7183 -86.3514 324° Northwest 381 438 38,000  Level Atlanta Center
Sun 12:31:07 PM 33.8044 -86.4289 323° Northwest 381 438 38,000  Level Atlanta Center
Sun 12:32:07 PM 33.8947 -86.5039 325° Northwest 381 438 38,000  Level Atlanta Center
Sun 12:33:07 PM 33.9831 -86.5817 324° Northwest 381 438 38,000  Level Atlanta Center
Sun 12:34:07 PM 34.0692 -86.6569 324° Northwest 381 438 38,000  Level Atlanta Center
Sun 12:35:07 PM 34.1592 -86.7375 323° Northwest 387 445 38,000  Level Atlanta Center
Sun 12:35:45 PM 34.2175 -86.7903 323° Northwest 407 468 38,000  Level Memphis Center
Sun 12:36:45 PM 34.3050 -86.8672 324° Northwest 412 474 38,000  Level Memphis Center
Sun 12:37:45 PM 34.3844 -86.9394 323° Northwest 407 468 38,000  Level Memphis Center
Sun 12:38:45 PM 34.4722 -87.0242 321° Northwest 398 458 38,000  Level Memphis Center
Sun 12:39:45 PM 34.5556 -87.0939 325° Northwest 386 444 38,000  Level Memphis Center
Sun 12:40:45 PM 34.6514 -87.1761 325° Northwest 381 438 38,000  Level Memphis Center
Sun 12:41:45 PM 34.7369 -87.2564 322° Northwest 381 438 38,000  Level Memphis Center
Sun 12:42:45 PM 34.8222 -87.3317 324° Northwest 375 432 38,000  Level Memphis Center
Sun 12:43:45 PM 34.9097 -87.4094 324° Northwest 375 432 38,000  Level Memphis Center
Sun 12:44:45 PM 34.9950 -87.4850 324° Northwest 375 432 38,000  Level Memphis Center
Sun 12:45:45 PM 35.0822 -87.5633 324° Northwest 375 432 38,000  Level Memphis Center
Sun 12:46:45 PM 35.1631 -87.6342 324° Northwest 380 437 38,000  Level Memphis Center
Sun 12:47:45 PM 35.2503 -87.7153 323° Northwest 385 443 38,000  Level Memphis Center
Sun 12:48:45 PM 35.3417 -87.7964 324° Northwest 391 450 38,000  Level Memphis Center
Sun 12:49:45 PM 35.4269 -87.8831 320° Northwest 396 456 38,000  Level Memphis Center
Sun 12:50:45 PM 35.5225 -87.9669 324° Northwest 408 470 38,000  Level Memphis Center
Sun 12:51:45 PM 35.6117 -88.0486 323° Northwest 408 470 38,000  Level Memphis Center
Sun 12:52:45 PM 35.7028 -88.1328 323° Northwest 413 475 38,000  Level Memphis Center
Sun 12:53:45 PM 35.7961 -88.2147 325° Northwest 413 475 38,000  Level Memphis Center
Sun 12:54:45 PM 35.8978 -88.3069 324° Northwest 413 475 38,000  Level Memphis Center
Sun 12:55:45 PM 35.9803 -88.3869 322° Northwest 418 481 38,000  Level Memphis Center
Sun 12:56:45 PM 36.0861 -88.4819 324° Northwest 423 487 38,000  Level Memphis Center
Sun 12:57:45 PM 36.1683 -88.5597 323° Northwest 423 487 38,000  Level Memphis Center
Sun 12:58:45 PM 36.2656 -88.6503 323° Northwest 423 487 38,000  Level Memphis Center
Sun 12:59:45 PM 36.3586 -88.7386 323° Northwest 423 487 38,000 -300 Level Memphis Center
Sun 01:00:45 PM 36.4514 -88.8269 323° Northwest 428 493 37,400 -700 Descending Memphis Center
Sun 01:01:45 PM 36.5442 -88.9106 324° Northwest 428 493 36,600 -800 Descending Memphis Center
Sun 01:02:45 PM 36.6389 -89.0019 322° Northwest 428 493 35,800 -1,101 Descending Memphis Center
Sun 01:04:23 PM 36.7856 -89.1464 322° Northwest 428 493 33,700 -1,388 Descending Kansas City Center
Sun 01:05:25 PM 36.8797 -89.2356 323° Northwest 427 491 32,100 -1,742 Descending Kansas City Center
Sun 01:06:27 PM 36.9911 -89.3453 322° Northwest 426 490 30,100 -1,694 Descending Kansas City Center
Sun 01:07:29 PM 37.0858 -89.4353 323° Northwest 427 491 28,600 -1,452 Descending Kansas City Center
Sun 01:08:31 PM 37.1778 -89.5250 322° Northwest 422 486 27,100 -1,258 Descending Kansas City Center
Sun 01:09:33 PM 37.2708 -89.6006 327° Northwest 407 468 26,000 -532 Descending Kansas City Center
Sun 01:10:35 PM 37.3731 -89.6519 338° Northwest 396 456 26,000  Level Kansas City Center
Sun 01:11:37 PM 37.4742 -89.7072 337° Northwest 396 456 26,000 -726 Level Kansas City Center
Sun 01:12:39 PM 37.5806 -89.7667 336° Northwest 395 455 24,500 -1,790 Descending Kansas City Center
Sun 01:13:41 PM 37.6769 -89.8208 336° Northwest 383 441 22,300 -2,274 Descending Kansas City Center
Sun 01:14:43 PM 37.7894 -89.8825 337° Northwest 370 426 19,800 -2,226 Descending Kansas City Center
Sun 01:15:45 PM 37.8831 -89.9319 337° Northwest 357 411 17,700 -1,984 Descending Kansas City Center
Sun 01:16:47 PM 37.9708 -89.9775 338° Northwest 342 394 15,700 -1,984 Descending Kansas City Center
Sun 01:17:49 PM 38.0608 -90.0300 335° Northwest 333 383 13,600 -1,935 Descending Kansas City Center
Sun 01:18:51 PM 38.1436 -90.0703 339° North 322 371 11,700 -1,645 Descending Kansas City Center
Sun 01:19:53 PM 38.2353 -90.0806 355° North 308 354 10,200 -968 Descending Kansas City Center
Sun 01:20:55 PM 38.3142 -90.0886 355° North 287 330 9,700 -871 Descending Kansas City Center
Sun 01:21:57 PM 38.3861 -90.0961 355° North 263 303 8,400 -919 Descending Kansas City Center
Sun 01:22:59 PM 38.4550 -90.1058 354° North 257 296 7,800 -1,113 Descending Kansas City Center
Sun 01:24:01 PM 38.5281 -90.1125 356° North 259 298 6,100 -1,306 Descending Kansas City Center
Sun 01:25:03 PM 38.5989 -90.1181 356° North 258 297 5,100 -1,016 Descending Kansas City Center
Sun 01:26:05 PM 38.6511 -90.1628 326° Northwest 219 252 4,000 -1,065 Descending Kansas City Center
Sun 01:27:07 PM 38.6769 -90.2147 303° West 192 221 2,900 -968 Descending Kansas City Center
Sun 01:28:09 PM 38.7000 -90.2622 302° West 174 200 2,000 -774 Descending Kansas City Center
Sun 01:29:11 PM 38.7194 -90.3017 302° West 152 175 1,300 -677 Descending Kansas City Center
Sun 01:30:13 PM 38.7389 -90.3381 304° West 137 158 600 -677 Descending Kansas City Center
Sun 01:32:00 PM 38.7333 -90.3667 90° East  Level FlightAware Approximate

Login

Don't have an account? Register now (free) for customized features, flight alerts, and more!